Amarillo, Texas
Current Conditions -  °F | °C
As of 12:53 AM on Sunday 23 Nov 2014 (Local Time) from KAMA Reporting Station
Clear Clear  
Wind Chill: 10°   Ceiling: Unl
Heat Index: 10°   Visibility: 10mi
Dew Point: -6°   Wind: 18mph
Humidity: 33%   Direction: 230°SW
Pressure: 29.55"   Gusts: 24mph
Location:  35.21°N, 101.83°W
Report Text: KAMA 230653Z AUTO 23016G21KT 10SM CLR 10/M06 A2955 RMK AO2 SLP973 T01001056
Loading
Personal Weather Stations






























Interactive Weather Map New forecast layout! Learn more

10-Day Weather Forecast

Advertisements
Track Severe Weather on mobile